Pagrindinis puslapis
METAR-TAF:

METAR-TAF

Oro uostai :

Oro pajėgų bazė

Meppen, Vokietija

platuma: 52-43-24N, ilguma: 007-19-35E, Aukštis: 21 m

Dabartinis oras

Ataskaita buvo paskelbta 50 minutes, ne 03:20 UTC
Vėjas 3 kt iš Šiaurės Rytų
Temperatūra 9°C
Drėgmė 76%
Slėgis 1025 hPa

METAR: ETWM 310320Z AUTO 05003KT //// // ////// 09/05 Q1025 ///

Laikas: 06:10 (04:10 UTC)


TAF: trūkstamas

Orai ataskaitas ir orų prognozės (METAR, TAF).

turimą stotys yra geltonos ir raudonos taškus žemėlapyje.

Perkelti pele per norėdami pamatyti stoties vardą.

Tada spustelėkite, norėdami matyti oro stebėjimo ir prognozės.

Norėdami pakeisti žemėlapį: spustelėkite ant žalios mygtukų su juodo kryžiaus žemyn,; žalią mygtuką su brūkšneliu, jei norite nutolinti; arba žalių rodyklių gretimoms žemėlapius.


METAR-TAF: